sensor_id;sensor_type;location;lat;lon;timestamp;temperature;humidity
34873;DHT22;21084;51.098;14.506;2023-08-30T00:02:27;12.80;99.90
34873;DHT22;21084;51.098;14.506;2023-08-30T00:04:57;12.70;99.90
34873;DHT22;21084;51.098;14.506;2023-08-30T00:07:26;12.80;99.90
34873;DHT22;21084;51.098;14.506;2023-08-30T00:09:55;12.70;99.90
34873;DHT22;21084;51.098;14.506;2023-08-30T00:12:24;12.70;99.90
34873;DHT22;21084;51.098;14.506;2023-08-30T00:14:52;12.70;99.90
34873;DHT22;21084;51.098;14.506;2023-08-30T00:17:20;12.70;99.90
34873;DHT22;21084;51.098;14.506;2023-08-30T00:19:49;12.80;99.90
34873;DHT22;21084;51.098;14.506;2023-08-30T00:22:21;12.80;99.90
34873;DHT22;21084;51.098;14.506;2023-08-30T00:24:50;12.80;99.90
34873;DHT22;21084;51.098;14.506;2023-08-30T00:27:20;12.80;99.90
34873;DHT22;21084;51.098;14.506;2023-08-30T00:29:48;12.80;99.90
34873;DHT22;21084;51.098;14.506;2023-08-30T00:32:17;12.80;99.90
34873;DHT22;21084;51.098;14.506;2023-08-30T00:34:45;12.70;99.90
34873;DHT22;21084;51.098;14.506;2023-08-30T00:37:13;12.80;99.90
34873;DHT22;21084;51.098;14.506;2023-08-30T00:39:42;12.80;99.90
34873;DHT22;21084;51.098;14.506;2023-08-30T00:42:11;12.80;99.90
34873;DHT22;21084;51.098;14.506;2023-08-30T00:44:41;12.90;99.90
34873;DHT22;21084;51.098;14.506;2023-08-30T00:47:09;12.80;99.90
34873;DHT22;21084;51.098;14.506;2023-08-30T00:49:38;12.80;99.90
34873;DHT22;21084;51.098;14.506;2023-08-30T00:52:07;12.80;99.90
34873;DHT22;21084;51.098;14.506;2023-08-30T00:54:36;12.80;99.90
34873;DHT22;21084;51.098;14.506;2023-08-30T00:57:05;12.80;99.90
34873;DHT22;21084;51.098;14.506;2023-08-30T00:59:34;12.80;99.90
34873;DHT22;21084;51.098;14.506;2023-08-30T01:02:04;12.80;99.90
34873;DHT22;21084;51.098;14.506;2023-08-30T01:04:32;12.80;99.90
34873;DHT22;21084;51.098;14.506;2023-08-30T01:07:01;12.80;99.90
34873;DHT22;21084;51.098;14.506;2023-08-30T01:09:29;12.80;99.90
34873;DHT22;21084;51.098;14.506;2023-08-30T01:11:59;12.80;99.90
34873;DHT22;21084;51.098;14.506;2023-08-30T01:14:29;12.80;99.90
34873;DHT22;21084;51.098;14.506;2023-08-30T01:16:58;12.80;99.90
34873;DHT22;21084;51.098;14.506;2023-08-30T01:19:35;12.80;99.90
34873;DHT22;21084;51.098;14.506;2023-08-30T01:22:05;12.80;99.90
34873;DHT22;21084;51.098;14.506;2023-08-30T01:24:37;12.80;99.90
34873;DHT22;21084;51.098;14.506;2023-08-30T01:27:11;12.80;99.90
34873;DHT22;21084;51.098;14.506;2023-08-30T01:29:42;12.80;99.90
34873;DHT22;21084;51.098;14.506;2023-08-30T01:32:11;12.80;99.90
34873;DHT22;21084;51.098;14.506;2023-08-30T01:34:40;12.80;99.90
34873;DHT22;21084;51.098;14.506;2023-08-30T01:37:10;12.80;99.90
34873;DHT22;21084;51.098;14.506;2023-08-30T01:39:40;12.80;99.90
34873;DHT22;21084;51.098;14.506;2023-08-30T01:42:11;12.80;99.90
34873;DHT22;21084;51.098;14.506;2023-08-30T01:44:41;12.80;99.90
34873;DHT22;21084;51.098;14.506;2023-08-30T01:47:11;12.80;99.90
34873;DHT22;21084;51.098;14.506;2023-08-30T01:49:40;12.80;99.90
34873;DHT22;21084;51.098;14.506;2023-08-30T01:52:08;12.80;99.90
34873;DHT22;21084;51.098;14.506;2023-08-30T01:54:37;12.80;99.90
34873;DHT22;21084;51.098;14.506;2023-08-30T01:57:07;12.80;99.90
34873;DHT22;21084;51.098;14.506;2023-08-30T01:59:36;12.80;99.90
34873;DHT22;21084;51.098;14.506;2023-08-30T02:02:05;12.80;99.90
34873;DHT22;21084;51.098;14.506;2023-08-30T02:04:33;12.80;99.90
34873;DHT22;21084;51.098;14.506;2023-08-30T02:07:02;12.80;99.90
34873;DHT22;21084;51.098;14.506;2023-08-30T02:09:36;12.80;99.90
34873;DHT22;21084;51.098;14.506;2023-08-30T02:12:07;12.80;99.90
34873;DHT22;21084;51.098;14.506;2023-08-30T02:14:39;12.80;99.90
34873;DHT22;21084;51.098;14.506;2023-08-30T02:17:09;12.80;99.90
34873;DHT22;21084;51.098;14.506;2023-08-30T02:19:37;12.80;99.90
34873;DHT22;21084;51.098;14.506;2023-08-30T02:22:06;12.80;99.90
34873;DHT22;21084;51.098;14.506;2023-08-30T02:24:34;12.70;99.90
34873;DHT22;21084;51.098;14.506;2023-08-30T02:27:02;12.80;99.90
34873;DHT22;21084;51.098;14.506;2023-08-30T02:29:30;12.70;99.90
34873;DHT22;21084;51.098;14.506;2023-08-30T02:32:00;12.70;99.90
34873;DHT22;21084;51.098;14.506;2023-08-30T02:34:29;12.70;99.90
34873;DHT22;21084;51.098;14.506;2023-08-30T02:36:57;12.80;99.90
34873;DHT22;21084;51.098;14.506;2023-08-30T02:39:25;12.70;99.90
34873;DHT22;21084;51.098;14.506;2023-08-30T02:41:54;12.70;99.90
34873;DHT22;21084;51.098;14.506;2023-08-30T02:44:22;12.70;99.90
34873;DHT22;21084;51.098;14.506;2023-08-30T02:46:50;12.70;99.90
34873;DHT22;21084;51.098;14.506;2023-08-30T02:49:20;12.60;99.90
34873;DHT22;21084;51.098;14.506;2023-08-30T02:51:48;12.60;99.90
34873;DHT22;21084;51.098;14.506;2023-08-30T02:54:16;12.60;99.90
34873;DHT22;21084;51.098;14.506;2023-08-30T02:56:44;12.60;99.90
34873;DHT22;21084;51.098;14.506;2023-08-30T02:59:13;12.60;99.90
34873;DHT22;21084;51.098;14.506;2023-08-30T03:01:41;12.60;99.90
34873;DHT22;21084;51.098;14.506;2023-08-30T03:04:10;12.60;99.90
34873;DHT22;21084;51.098;14.506;2023-08-30T03:06:39;12.60;99.90
34873;DHT22;21084;51.098;14.506;2023-08-30T03:09:07;12.70;99.90
34873;DHT22;21084;51.098;14.506;2023-08-30T03:11:36;12.60;99.90
34873;DHT22;21084;51.098;14.506;2023-08-30T03:14:04;12.70;99.90
34873;DHT22;21084;51.098;14.506;2023-08-30T03:16:32;12.70;99.90
34873;DHT22;21084;51.098;14.506;2023-08-30T03:19:01;12.70;99.90
34873;DHT22;21084;51.098;14.506;2023-08-30T03:21:29;12.70;99.90
34873;DHT22;21084;51.098;14.506;2023-08-30T03:23:59;12.70;99.90
34873;DHT22;21084;51.098;14.506;2023-08-30T03:26:27;12.60;99.90
34873;DHT22;21084;51.098;14.506;2023-08-30T03:28:55;12.60;99.90
34873;DHT22;21084;51.098;14.506;2023-08-30T03:31:23;12.60;99.90
34873;DHT22;21084;51.098;14.506;2023-08-30T03:33:52;12.60;99.90
34873;DHT22;21084;51.098;14.506;2023-08-30T03:36:20;12.60;99.90
34873;DHT22;21084;51.098;14.506;2023-08-30T03:38:49;12.60;99.90
34873;DHT22;21084;51.098;14.506;2023-08-30T03:41:18;12.50;99.90
34873;DHT22;21084;51.098;14.506;2023-08-30T03:43:46;12.50;99.90
34873;DHT22;21084;51.098;14.506;2023-08-30T03:46:15;12.50;99.90
34873;DHT22;21084;51.098;14.506;2023-08-30T03:48:43;12.50;99.90
34873;DHT22;21084;51.098;14.506;2023-08-30T03:51:12;12.50;99.90
34873;DHT22;21084;51.098;14.506;2023-08-30T03:53:40;12.50;99.90
34873;DHT22;21084;51.098;14.506;2023-08-30T03:56:08;12.50;99.90
34873;DHT22;21084;51.098;14.506;2023-08-30T03:58:38;12.50;99.90
34873;DHT22;21084;51.098;14.506;2023-08-30T04:01:06;12.60;99.90
34873;DHT22;21084;51.098;14.506;2023-08-30T04:03:35;12.60;99.90
34873;DHT22;21084;51.098;14.506;2023-08-30T04:06:03;12.60;99.90
34873;DHT22;21084;51.098;14.506;2023-08-30T04:08:31;12.60;99.90
34873;DHT22;21084;51.098;14.506;2023-08-30T04:11:01;12.60;99.90
34873;DHT22;21084;51.098;14.506;2023-08-30T04:13:30;12.60;99.90
34873;DHT22;21084;51.098;14.506;2023-08-30T04:15:59;12.50;99.90
34873;DHT22;21084;51.098;14.506;2023-08-30T04:18:28;12.50;99.90
34873;DHT22;21084;51.098;14.506;2023-08-30T04:20:56;12.50;99.90
34873;DHT22;21084;51.098;14.506;2023-08-30T04:23:25;12.50;99.90
34873;DHT22;21084;51.098;14.506;2023-08-30T04:25:53;12.50;99.90
34873;DHT22;21084;51.098;14.506;2023-08-30T04:28:21;12.50;99.90
34873;DHT22;21084;51.098;14.506;2023-08-30T04:30:52;12.50;99.90
34873;DHT22;21084;51.098;14.506;2023-08-30T04:33:22;12.50;99.90
34873;DHT22;21084;51.098;14.506;2023-08-30T04:35:50;12.50;99.90
34873;DHT22;21084;51.098;14.506;2023-08-30T04:38:19;12.50;99.90
34873;DHT22;21084;51.098;14.506;2023-08-30T04:40:47;12.50;99.90
34873;DHT22;21084;51.098;14.506;2023-08-30T04:43:16;12.50;99.90
34873;DHT22;21084;51.098;14.506;2023-08-30T04:45:46;12.50;99.90
34873;DHT22;21084;51.098;14.506;2023-08-30T04:48:15;12.50;99.90
34873;DHT22;21084;51.098;14.506;2023-08-30T04:50:45;12.50;99.90
34873;DHT22;21084;51.098;14.506;2023-08-30T04:53:13;12.50;99.90
34873;DHT22;21084;51.098;14.506;2023-08-30T04:55:41;12.50;99.90
34873;DHT22;21084;51.098;14.506;2023-08-30T04:58:09;12.50;99.90
34873;DHT22;21084;51.098;14.506;2023-08-30T05:00:38;12.50;99.90
34873;DHT22;21084;51.098;14.506;2023-08-30T05:03:06;12.60;99.90
34873;DHT22;21084;51.098;14.506;2023-08-30T05:05:35;12.60;99.90
34873;DHT22;21084;51.098;14.506;2023-08-30T05:08:05;12.60;99.90
34873;DHT22;21084;51.098;14.506;2023-08-30T05:10:33;12.60;99.90
34873;DHT22;21084;51.098;14.506;2023-08-30T05:13:02;12.60;99.90
34873;DHT22;21084;51.098;14.506;2023-08-30T05:15:30;12.70;99.90
34873;DHT22;21084;51.098;14.506;2023-08-30T05:17:59;12.60;99.90
34873;DHT22;21084;51.098;14.506;2023-08-30T05:20:27;12.60;99.90
34873;DHT22;21084;51.098;14.506;2023-08-30T05:22:56;12.60;99.90
34873;DHT22;21084;51.098;14.506;2023-08-30T05:25:26;12.60;99.90
34873;DHT22;21084;51.098;14.506;2023-08-30T05:27:54;12.70;99.90
34873;DHT22;21084;51.098;14.506;2023-08-30T05:30:22;12.70;99.90
34873;DHT22;21084;51.098;14.506;2023-08-30T05:32:51;12.70;99.90
34873;DHT22;21084;51.098;14.506;2023-08-30T05:35:19;12.60;99.90
34873;DHT22;21084;51.098;14.506;2023-08-30T05:37:47;12.60;99.90
34873;DHT22;21084;51.098;14.506;2023-08-30T05:40:15;12.70;99.90
34873;DHT22;21084;51.098;14.506;2023-08-30T05:42:46;12.70;99.90
34873;DHT22;21084;51.098;14.506;2023-08-30T05:45:14;12.70;99.90
34873;DHT22;21084;51.098;14.506;2023-08-30T05:47:42;12.70;99.90
34873;DHT22;21084;51.098;14.506;2023-08-30T05:50:10;12.60;99.90
34873;DHT22;21084;51.098;14.506;2023-08-30T05:52:39;12.70;99.90
34873;DHT22;21084;51.098;14.506;2023-08-30T05:55:08;12.70;99.90
34873;DHT22;21084;51.098;14.506;2023-08-30T05:57:36;12.70;99.90
34873;DHT22;21084;51.098;14.506;2023-08-30T06:00:07;12.60;99.90
34873;DHT22;21084;51.098;14.506;2023-08-30T06:02:35;12.60;99.90
34873;DHT22;21084;51.098;14.506;2023-08-30T06:05:04;12.70;99.90
34873;DHT22;21084;51.098;14.506;2023-08-30T06:07:32;12.70;99.90
34873;DHT22;21084;51.098;14.506;2023-08-30T06:10:01;12.70;99.90
34873;DHT22;21084;51.098;14.506;2023-08-30T06:12:29;12.50;99.90
34873;DHT22;21084;51.098;14.506;2023-08-30T06:14:57;12.50;99.90
34873;DHT22;21084;51.098;14.506;2023-08-30T06:17:27;12.60;99.90
34873;DHT22;21084;51.098;14.506;2023-08-30T06:19:55;12.50;99.90
34873;DHT22;21084;51.098;14.506;2023-08-30T06:22:23;12.60;99.90
34873;DHT22;21084;51.098;14.506;2023-08-30T06:24:52;12.70;99.90
34873;DHT22;21084;51.098;14.506;2023-08-30T06:27:20;12.60;99.90
34873;DHT22;21084;51.098;14.506;2023-08-30T06:29:48;12.70;99.90
34873;DHT22;21084;51.098;14.506;2023-08-30T06:32:17;12.70;99.90
34873;DHT22;21084;51.098;14.506;2023-08-30T06:34:47;12.80;99.90
34873;DHT22;21084;51.098;14.506;2023-08-30T06:37:15;12.90;99.90
34873;DHT22;21084;51.098;14.506;2023-08-30T06:39:44;12.90;99.90
34873;DHT22;21084;51.098;14.506;2023-08-30T06:42:12;12.90;99.90
34873;DHT22;21084;51.098;14.506;2023-08-30T06:44:40;13.00;99.90
34873;DHT22;21084;51.098;14.506;2023-08-30T06:47:08;13.00;99.90
34873;DHT22;21084;51.098;14.506;2023-08-30T06:49:36;13.10;99.90
34873;DHT22;21084;51.098;14.506;2023-08-30T06:52:06;13.30;99.90
34873;DHT22;21084;51.098;14.506;2023-08-30T06:54:34;13.40;99.90
34873;DHT22;21084;51.098;14.506;2023-08-30T06:57:03;13.60;99.90
34873;DHT22;21084;51.098;14.506;2023-08-30T06:59:33;13.70;99.90
34873;DHT22;21084;51.098;14.506;2023-08-30T07:02:02;13.60;99.90
34873;DHT22;21084;51.098;14.506;2023-08-30T07:04:31;13.70;99.90
34873;DHT22;21084;51.098;14.506;2023-08-30T07:06:59;13.80;99.90
34873;DHT22;21084;51.098;14.506;2023-08-30T07:09:30;14.00;99.90
34873;DHT22;21084;51.098;14.506;2023-08-30T07:12:00;13.80;99.90
34873;DHT22;21084;51.098;14.506;2023-08-30T07:14:28;14.00;99.90
34873;DHT22;21084;51.098;14.506;2023-08-30T07:16:56;14.20;99.90
34873;DHT22;21084;51.098;14.506;2023-08-30T07:19:26;14.40;99.90
34873;DHT22;21084;51.098;14.506;2023-08-30T07:21:54;14.70;99.90
34873;DHT22;21084;51.098;14.506;2023-08-30T07:24:22;14.80;99.90
34873;DHT22;21084;51.098;14.506;2023-08-30T07:26:52;15.20;99.90
34873;DHT22;21084;51.098;14.506;2023-08-30T07:29:20;15.20;99.90
34873;DHT22;21084;51.098;14.506;2023-08-30T07:31:48;15.10;99.90
34873;DHT22;21084;51.098;14.506;2023-08-30T07:34:18;15.00;99.90
34873;DHT22;21084;51.098;14.506;2023-08-30T07:36:47;14.80;99.90
34873;DHT22;21084;51.098;14.506;2023-08-30T07:39:15;14.60;99.90
34873;DHT22;21084;51.098;14.506;2023-08-30T07:41:43;14.50;99.90
34873;DHT22;21084;51.098;14.506;2023-08-30T07:44:13;14.50;99.90
34873;DHT22;21084;51.098;14.506;2023-08-30T07:46:41;14.50;99.90
34873;DHT22;21084;51.098;14.506;2023-08-30T07:49:09;14.70;99.90
34873;DHT22;21084;51.098;14.506;2023-08-30T07:51:37;14.90;99.90
34873;DHT22;21084;51.098;14.506;2023-08-30T07:54:05;14.80;99.90
34873;DHT22;21084;51.098;14.506;2023-08-30T07:56:34;14.80;99.90
34873;DHT22;21084;51.098;14.506;2023-08-30T07:59:02;14.70;99.90
34873;DHT22;21084;51.098;14.506;2023-08-30T08:01:32;14.70;99.90
34873;DHT22;21084;51.098;14.506;2023-08-30T08:04:00;14.90;99.90
34873;DHT22;21084;51.098;14.506;2023-08-30T08:06:34;15.40;99.90
34873;DHT22;21084;51.098;14.506;2023-08-30T08:09:04;15.60;99.90
34873;DHT22;21084;51.098;14.506;2023-08-30T08:11:32;15.70;99.90
34873;DHT22;21084;51.098;14.506;2023-08-30T08:14:01;15.70;99.90
34873;DHT22;21084;51.098;14.506;2023-08-30T08:16:31;16.00;99.90
34873;DHT22;21084;51.098;14.506;2023-08-30T08:19:00;16.10;99.90
34873;DHT22;21084;51.098;14.506;2023-08-30T08:21:28;16.10;99.90
34873;DHT22;21084;51.098;14.506;2023-08-30T08:23:56;16.00;99.90
34873;DHT22;21084;51.098;14.506;2023-08-30T08:26:25;15.70;99.90
34873;DHT22;21084;51.098;14.506;2023-08-30T08:28:53;15.50;99.90
34873;DHT22;21084;51.098;14.506;2023-08-30T08:31:21;15.70;99.90
34873;DHT22;21084;51.098;14.506;2023-08-30T08:34:04;15.80;99.90
34873;DHT22;21084;51.098;14.506;2023-08-30T08:36:32;15.90;99.90
34873;DHT22;21084;51.098;14.506;2023-08-30T08:39:01;16.30;99.90
34873;DHT22;21084;51.098;14.506;2023-08-30T08:41:34;16.50;99.90
34873;DHT22;21084;51.098;14.506;2023-08-30T08:44:04;16.40;99.90
34873;DHT22;21084;51.098;14.506;2023-08-30T08:46:32;16.20;99.90
34873;DHT22;21084;51.098;14.506;2023-08-30T08:49:05;16.40;99.90
34873;DHT22;21084;51.098;14.506;2023-08-30T08:51:36;16.30;99.90
34873;DHT22;21084;51.098;14.506;2023-08-30T08:54:05;16.70;99.90
34873;DHT22;21084;51.098;14.506;2023-08-30T08:56:36;16.70;99.90
34873;DHT22;21084;51.098;14.506;2023-08-30T08:59:05;17.00;99.90
34873;DHT22;21084;51.098;14.506;2023-08-30T09:01:35;17.30;99.90
34873;DHT22;21084;51.098;14.506;2023-08-30T09:04:08;17.10;99.90
34873;DHT22;21084;51.098;14.506;2023-08-30T09:06:37;17.00;99.90
34873;DHT22;21084;51.098;14.506;2023-08-30T09:09:08;17.00;99.90
34873;DHT22;21084;51.098;14.506;2023-08-30T09:11:36;16.70;99.90
34873;DHT22;21084;51.098;14.506;2023-08-30T09:14:08;16.60;99.90
34873;DHT22;21084;51.098;14.506;2023-08-30T09:16:36;16.20;99.90
34873;DHT22;21084;51.098;14.506;2023-08-30T09:19:05;16.20;99.90
34873;DHT22;21084;51.098;14.506;2023-08-30T09:21:38;16.10;99.90
34873;DHT22;21084;51.098;14.506;2023-08-30T09:24:09;16.00;99.90
34873;DHT22;21084;51.098;14.506;2023-08-30T09:26:37;16.30;99.90
34873;DHT22;21084;51.098;14.506;2023-08-30T09:29:06;16.70;99.90
34873;DHT22;21084;51.098;14.506;2023-08-30T09:31:36;17.20;99.90
34873;DHT22;21084;51.098;14.506;2023-08-30T09:34:06;17.50;99.90
34873;DHT22;21084;51.098;14.506;2023-08-30T09:36:34;17.40;99.90
34873;DHT22;21084;51.098;14.506;2023-08-30T09:39:05;16.70;99.90
34873;DHT22;21084;51.098;14.506;2023-08-30T09:41:33;17.10;99.90
34873;DHT22;21084;51.098;14.506;2023-08-30T09:44:06;17.00;99.90
34873;DHT22;21084;51.098;14.506;2023-08-30T09:46:41;17.20;99.90
34873;DHT22;21084;51.098;14.506;2023-08-30T09:49:18;17.70;99.90
34873;DHT22;21084;51.098;14.506;2023-08-30T09:51:47;18.00;99.90
34873;DHT22;21084;51.098;14.506;2023-08-30T09:54:18;18.20;99.90
34873;DHT22;21084;51.098;14.506;2023-08-30T09:57:05;18.00;99.90
34873;DHT22;21084;51.098;14.506;2023-08-30T09:59:33;17.90;99.90
34873;DHT22;21084;51.098;14.506;2023-08-30T10:02:03;17.60;99.90
34873;DHT22;21084;51.098;14.506;2023-08-30T10:04:32;17.40;99.90
34873;DHT22;21084;51.098;14.506;2023-08-30T10:07:00;17.40;99.90
34873;DHT22;21084;51.098;14.506;2023-08-30T10:09:33;17.10;99.90
34873;DHT22;21084;51.098;14.506;2023-08-30T10:12:01;17.00;99.90
34873;DHT22;21084;51.098;14.506;2023-08-30T10:14:31;17.40;99.90
34873;DHT22;21084;51.098;14.506;2023-08-30T10:17:00;17.50;99.90
34873;DHT22;21084;51.098;14.506;2023-08-30T10:19:30;17.50;99.90
34873;DHT22;21084;51.098;14.506;2023-08-30T10:22:00;17.70;99.90
34873;DHT22;21084;51.098;14.506;2023-08-30T10:24:31;17.70;99.90
34873;DHT22;21084;51.098;14.506;2023-08-30T10:27:15;17.70;99.90
34873;DHT22;21084;51.098;14.506;2023-08-30T10:29:44;17.70;99.90
34873;DHT22;21084;51.098;14.506;2023-08-30T10:32:18;17.60;99.90
34873;DHT22;21084;51.098;14.506;2023-08-30T10:34:47;17.90;99.90
34873;DHT22;21084;51.098;14.506;2023-08-30T10:37:15;18.30;99.90
34873;DHT22;21084;51.098;14.506;2023-08-30T10:39:47;18.70;99.90
34873;DHT22;21084;51.098;14.506;2023-08-30T10:42:21;17.90;99.90
34873;DHT22;21084;51.098;14.506;2023-08-30T10:44:50;18.20;99.90
34873;DHT22;21084;51.098;14.506;2023-08-30T10:47:22;18.70;99.90
34873;DHT22;21084;51.098;14.506;2023-08-30T10:49:50;19.20;99.90
34873;DHT22;21084;51.098;14.506;2023-08-30T10:52:21;19.30;99.90
34873;DHT22;21084;51.098;14.506;2023-08-30T10:54:50;19.50;99.90
34873;DHT22;21084;51.098;14.506;2023-08-30T10:57:24;19.50;99.90
34873;DHT22;21084;51.098;14.506;2023-08-30T11:00:08;19.80;99.90
34873;DHT22;21084;51.098;14.506;2023-08-30T11:02:38;19.90;99.90
34873;DHT22;21084;51.098;14.506;2023-08-30T11:05:06;20.10;99.90
34873;DHT22;21084;51.098;14.506;2023-08-30T11:07:35;20.50;99.90
34873;DHT22;21084;51.098;14.506;2023-08-30T11:10:04;19.90;99.90
34873;DHT22;21084;51.098;14.506;2023-08-30T11:12:34;18.80;99.90
34873;DHT22;21084;51.098;14.506;2023-08-30T11:15:03;19.10;99.90
34873;DHT22;21084;51.098;14.506;2023-08-30T11:17:31;19.70;99.90
34873;DHT22;21084;51.098;14.506;2023-08-30T11:20:05;20.20;99.90
34873;DHT22;21084;51.098;14.506;2023-08-30T11:22:34;20.10;99.90
34873;DHT22;21084;51.098;14.506;2023-08-30T11:25:03;19.20;99.90
34873;DHT22;21084;51.098;14.506;2023-08-30T11:27:31;18.60;99.90
34873;DHT22;21084;51.098;14.506;2023-08-30T11:30:01;18.80;99.90
34873;DHT22;21084;51.098;14.506;2023-08-30T11:32:32;19.50;99.90
34873;DHT22;21084;51.098;14.506;2023-08-30T11:35:02;20.10;99.90
34873;DHT22;21084;51.098;14.506;2023-08-30T11:37:30;19.80;99.90
34873;DHT22;21084;51.098;14.506;2023-08-30T11:39:59;19.80;99.90
34873;DHT22;21084;51.098;14.506;2023-08-30T11:42:27;20.00;99.90
34873;DHT22;21084;51.098;14.506;2023-08-30T11:44:56;20.10;99.70
34873;DHT22;21084;51.098;14.506;2023-08-30T11:47:27;19.60;99.90
34873;DHT22;21084;51.098;14.506;2023-08-30T11:49:56;19.60;99.90
34873;DHT22;21084;51.098;14.506;2023-08-30T11:52:25;20.50;99.90
34873;DHT22;21084;51.098;14.506;2023-08-30T11:54:53;21.30;99.90
34873;DHT22;21084;51.098;14.506;2023-08-30T11:57:22;21.50;99.10
34873;DHT22;21084;51.098;14.506;2023-08-30T11:59:50;21.90;98.50
34873;DHT22;21084;51.098;14.506;2023-08-30T12:02:18;21.70;98.80
34873;DHT22;21084;51.098;14.506;2023-08-30T12:04:49;20.90;99.70
34873;DHT22;21084;51.098;14.506;2023-08-30T12:07:21;21.30;97.40
34873;DHT22;21084;51.098;14.506;2023-08-30T12:09:50;21.90;97.80
34873;DHT22;21084;51.098;14.506;2023-08-30T12:12:18;22.10;97.80
34873;DHT22;21084;51.098;14.506;2023-08-30T12:14:54;22.80;96.60
34873;DHT22;21084;51.098;14.506;2023-08-30T12:17:23;23.60;95.90
34873;DHT22;21084;51.098;14.506;2023-08-30T12:19:56;23.00;93.80
34873;DHT22;21084;51.098;14.506;2023-08-30T12:22:34;20.70;95.20
34873;DHT22;21084;51.098;14.506;2023-08-30T12:25:03;20.40;96.50
34873;DHT22;21084;51.098;14.506;2023-08-30T12:27:31;20.90;96.80
34873;DHT22;21084;51.098;14.506;2023-08-30T12:30:00;21.30;95.70
34873;DHT22;21084;51.098;14.506;2023-08-30T12:32:28;22.10;97.10
34873;DHT22;21084;51.098;14.506;2023-08-30T12:34:58;22.60;96.30
34873;DHT22;21084;51.098;14.506;2023-08-30T12:37:26;21.70;93.50
34873;DHT22;21084;51.098;14.506;2023-08-30T12:39:55;22.40;94.90
34873;DHT22;21084;51.098;14.506;2023-08-30T12:42:23;23.20;94.00
34873;DHT22;21084;51.098;14.506;2023-08-30T12:44:53;23.80;93.90
34873;DHT22;21084;51.098;14.506;2023-08-30T12:47:21;24.20;93.90
34873;DHT22;21084;51.098;14.506;2023-08-30T12:49:50;23.60;90.20
34873;DHT22;21084;51.098;14.506;2023-08-30T12:52:20;23.10;92.30
34873;DHT22;21084;51.098;14.506;2023-08-30T12:54:49;23.10;93.00
34873;DHT22;21084;51.098;14.506;2023-08-30T12:57:19;23.50;93.20
34873;DHT22;21084;51.098;14.506;2023-08-30T12:59:47;23.30;92.30
34873;DHT22;21084;51.098;14.506;2023-08-30T13:02:16;23.50;92.10
34873;DHT22;21084;51.098;14.506;2023-08-30T13:04:44;23.10;92.30
34873;DHT22;21084;51.098;14.506;2023-08-30T13:07:12;24.40;92.30
34873;DHT22;21084;51.098;14.506;2023-08-30T13:09:42;24.30;91.70
34873;DHT22;21084;51.098;14.506;2023-08-30T13:12:10;24.70;88.70
34873;DHT22;21084;51.098;14.506;2023-08-30T13:14:38;24.90;89.00
34873;DHT22;21084;51.098;14.506;2023-08-30T13:17:07;25.00;90.00
34873;DHT22;21084;51.098;14.506;2023-08-30T13:19:35;24.90;89.20
34873;DHT22;21084;51.098;14.506;2023-08-30T13:22:04;24.30;90.10
34873;DHT22;21084;51.098;14.506;2023-08-30T13:24:32;24.00;89.50
34873;DHT22;21084;51.098;14.506;2023-08-30T13:27:02;24.00;87.80
34873;DHT22;21084;51.098;14.506;2023-08-30T13:29:31;24.40;90.60
34873;DHT22;21084;51.098;14.506;2023-08-30T13:31:59;23.00;89.80
34873;DHT22;21084;51.098;14.506;2023-08-30T13:34:27;22.60;90.70
34873;DHT22;21084;51.098;14.506;2023-08-30T13:36:56;22.10;91.80
34873;DHT22;21084;51.098;14.506;2023-08-30T13:39:24;22.50;92.10
34873;DHT22;21084;51.098;14.506;2023-08-30T13:41:52;22.80;92.70
34873;DHT22;21084;51.098;14.506;2023-08-30T13:44:22;23.00;92.40
34873;DHT22;21084;51.098;14.506;2023-08-30T13:46:50;22.30;92.00
34873;DHT22;21084;51.098;14.506;2023-08-30T13:49:19;22.50;92.20
34873;DHT22;21084;51.098;14.506;2023-08-30T13:51:47;22.80;92.40
34873;DHT22;21084;51.098;14.506;2023-08-30T13:54:15;23.20;92.00
34873;DHT22;21084;51.098;14.506;2023-08-30T13:56:44;23.00;92.40
34873;DHT22;21084;51.098;14.506;2023-08-30T13:59:12;22.70;91.30
34873;DHT22;21084;51.098;14.506;2023-08-30T14:01:42;22.90;91.60
34873;DHT22;21084;51.098;14.506;2023-08-30T14:04:10;22.90;91.70
34873;DHT22;21084;51.098;14.506;2023-08-30T14:06:38;22.30;91.70
34873;DHT22;21084;51.098;14.506;2023-08-30T14:09:07;22.70;92.00
34873;DHT22;21084;51.098;14.506;2023-08-30T14:11:35;23.00;92.30
34873;DHT22;21084;51.098;14.506;2023-08-30T14:14:05;23.10;91.70
34873;DHT22;21084;51.098;14.506;2023-08-30T14:16:33;23.00;92.20
34873;DHT22;21084;51.098;14.506;2023-08-30T14:19:05;22.90;92.30
34873;DHT22;21084;51.098;14.506;2023-08-30T14:21:35;23.10;91.60
34873;DHT22;21084;51.098;14.506;2023-08-30T14:24:03;22.60;91.80
34873;DHT22;21084;51.098;14.506;2023-08-30T14:26:32;22.20;91.80
34873;DHT22;21084;51.098;14.506;2023-08-30T14:29:00;22.40;92.60
34873;DHT22;21084;51.098;14.506;2023-08-30T14:31:28;21.90;92.10
34873;DHT22;21084;51.098;14.506;2023-08-30T14:33:57;21.90;92.70
34873;DHT22;21084;51.098;14.506;2023-08-30T14:36:27;21.50;95.00
34873;DHT22;21084;51.098;14.506;2023-08-30T14:38:56;22.70;93.50
34873;DHT22;21084;51.098;14.506;2023-08-30T14:41:24;23.50;92.80
34873;DHT22;21084;51.098;14.506;2023-08-30T14:43:52;24.90;91.50
34873;DHT22;21084;51.098;14.506;2023-08-30T14:46:21;26.00;91.00
34873;DHT22;21084;51.098;14.506;2023-08-30T14:48:50;26.50;87.50
34873;DHT22;21084;51.098;14.506;2023-08-30T14:51:19;25.10;87.60
34873;DHT22;21084;51.098;14.506;2023-08-30T14:53:48;24.70;86.90
34873;DHT22;21084;51.098;14.506;2023-08-30T14:56:17;25.30;90.20
34873;DHT22;21084;51.098;14.506;2023-08-30T14:58:45;25.60;87.20
34873;DHT22;21084;51.098;14.506;2023-08-30T15:01:16;25.00;89.60
34873;DHT22;21084;51.098;14.506;2023-08-30T15:03:45;24.10;85.60
34873;DHT22;21084;51.098;14.506;2023-08-30T15:06:13;23.60;90.90
34873;DHT22;21084;51.098;14.506;2023-08-30T15:08:41;22.50;90.60
34873;DHT22;21084;51.098;14.506;2023-08-30T15:11:11;22.40;93.90
34873;DHT22;21084;51.098;14.506;2023-08-30T15:13:40;22.20;91.90
34873;DHT22;21084;51.098;14.506;2023-08-30T15:16:09;22.40;92.30
34873;DHT22;21084;51.098;14.506;2023-08-30T15:18:37;23.00;91.80
34873;DHT22;21084;51.098;14.506;2023-08-30T15:21:05;23.60;90.70
34873;DHT22;21084;51.098;14.506;2023-08-30T15:23:34;24.50;91.50
34873;DHT22;21084;51.098;14.506;2023-08-30T15:26:04;25.10;89.10
34873;DHT22;21084;51.098;14.506;2023-08-30T15:28:34;25.50;88.40